sensor_id;sensor_type;location;lat;lon;timestamp;P1;durP1;ratioP1;P2;durP2;ratioP2
28009;SDS011;15334;49.494;8.410;2023-02-12T00:01:59;34.65;;;16.35;;
28009;SDS011;15334;49.494;8.410;2023-02-12T00:04:27;34.40;;;15.52;;
28009;SDS011;15334;49.494;8.410;2023-02-12T00:06:58;37.30;;;17.42;;
28009;SDS011;15334;49.494;8.410;2023-02-12T00:09:29;35.70;;;16.00;;
28009;SDS011;15334;49.494;8.410;2023-02-12T00:11:58;33.05;;;15.20;;
28009;SDS011;15334;49.494;8.410;2023-02-12T00:14:28;33.15;;;15.43;;
28009;SDS011;15334;49.494;8.410;2023-02-12T00:16:58;30.90;;;14.85;;
28009;SDS011;15334;49.494;8.410;2023-02-12T00:19:26;33.80;;;14.60;;
28009;SDS011;15334;49.494;8.410;2023-02-12T00:21:55;34.50;;;16.80;;
28009;SDS011;15334;49.494;8.410;2023-02-12T00:26:57;35.67;;;15.13;;
28009;SDS011;15334;49.494;8.410;2023-02-12T00:29:32;35.20;;;16.75;;
28009;SDS011;15334;49.494;8.410;2023-02-12T00:32:03;27.55;;;15.10;;
28009;SDS011;15334;49.494;8.410;2023-02-12T00:34:39;37.60;;;15.38;;
28009;SDS011;15334;49.494;8.410;2023-02-12T00:37:08;34.25;;;15.55;;
28009;SDS011;15334;49.494;8.410;2023-02-12T00:39:38;27.95;;;15.00;;
28009;SDS011;15334;49.494;8.410;2023-02-12T00:42:09;32.65;;;14.05;;
28009;SDS011;15334;49.494;8.410;2023-02-12T00:44:44;35.75;;;16.13;;
28009;SDS011;15334;49.494;8.410;2023-02-12T00:47:14;31.85;;;15.68;;
28009;SDS011;15334;49.494;8.410;2023-02-12T00:49:43;31.40;;;15.25;;
28009;SDS011;15334;49.494;8.410;2023-02-12T00:52:13;31.73;;;15.75;;
28009;SDS011;15334;49.494;8.410;2023-02-12T00:54:41;31.73;;;15.18;;
28009;SDS011;15334;49.494;8.410;2023-02-12T00:57:12;36.55;;;15.02;;
28009;SDS011;15334;49.494;8.410;2023-02-12T00:59:41;36.00;;;16.20;;
28009;SDS011;15334;49.494;8.410;2023-02-12T01:02:13;33.40;;;15.32;;
28009;SDS011;15334;49.494;8.410;2023-02-12T01:04:46;33.55;;;15.88;;
28009;SDS011;15334;49.494;8.410;2023-02-12T01:07:17;28.67;;;14.43;;
28009;SDS011;15334;49.494;8.410;2023-02-12T01:09:49;36.65;;;15.15;;
28009;SDS011;15334;49.494;8.410;2023-02-12T01:12:21;34.08;;;16.38;;
28009;SDS011;15334;49.494;8.410;2023-02-12T01:14:54;35.28;;;15.57;;
28009;SDS011;15334;49.494;8.410;2023-02-12T01:17:23;37.90;;;15.57;;
28009;SDS011;15334;49.494;8.410;2023-02-12T01:19:58;33.05;;;14.55;;
28009;SDS011;15334;49.494;8.410;2023-02-12T01:22:27;29.60;;;14.60;;
28009;SDS011;15334;49.494;8.410;2023-02-12T01:24:58;38.78;;;16.75;;
28009;SDS011;15334;49.494;8.410;2023-02-12T01:27:27;29.70;;;14.48;;
28009;SDS011;15334;49.494;8.410;2023-02-12T01:30:04;33.05;;;14.88;;
28009;SDS011;15334;49.494;8.410;2023-02-12T01:32:34;31.52;;;16.02;;
28009;SDS011;15334;49.494;8.410;2023-02-12T01:35:09;34.70;;;15.18;;
28009;SDS011;15334;49.494;8.410;2023-02-12T01:37:37;36.75;;;16.25;;
28009;SDS011;15334;49.494;8.410;2023-02-12T01:40:05;40.25;;;17.10;;
28009;SDS011;15334;49.494;8.410;2023-02-12T01:42:35;35.10;;;16.50;;
28009;SDS011;15334;49.494;8.410;2023-02-12T01:45:26;33.17;;;15.38;;
28009;SDS011;15334;49.494;8.410;2023-02-12T01:48:15;34.55;;;16.48;;
28009;SDS011;15334;49.494;8.410;2023-02-12T01:50:45;37.88;;;17.38;;
28009;SDS011;15334;49.494;8.410;2023-02-12T01:53:16;34.38;;;15.98;;
28009;SDS011;15334;49.494;8.410;2023-02-12T01:55:46;35.88;;;15.48;;
28009;SDS011;15334;49.494;8.410;2023-02-12T01:58:16;34.20;;;14.82;;
28009;SDS011;15334;49.494;8.410;2023-02-12T02:00:46;31.08;;;14.82;;
28009;SDS011;15334;49.494;8.410;2023-02-12T02:03:14;31.75;;;15.35;;
28009;SDS011;15334;49.494;8.410;2023-02-12T02:05:45;30.17;;;15.65;;
28009;SDS011;15334;49.494;8.410;2023-02-12T02:08:18;40.90;;;16.45;;
28009;SDS011;15334;49.494;8.410;2023-02-12T02:10:46;38.53;;;16.38;;
28009;SDS011;15334;49.494;8.410;2023-02-12T02:13:14;34.40;;;14.95;;
28009;SDS011;15334;49.494;8.410;2023-02-12T02:16:01;40.80;;;15.52;;
28009;SDS011;15334;49.494;8.410;2023-02-12T02:18:39;36.50;;;15.57;;
28009;SDS011;15334;49.494;8.410;2023-02-12T02:21:25;29.65;;;14.68;;
28009;SDS011;15334;49.494;8.410;2023-02-12T02:24:12;38.42;;;16.67;;
28009;SDS011;15334;49.494;8.410;2023-02-12T02:32:49;35.25;;;15.75;;
28009;SDS011;15334;49.494;8.410;2023-02-12T02:35:27;35.30;;;15.43;;
28009;SDS011;15334;49.494;8.410;2023-02-12T02:38:02;36.38;;;16.35;;
28009;SDS011;15334;49.494;8.410;2023-02-12T02:40:40;34.78;;;16.95;;
28009;SDS011;15334;49.494;8.410;2023-02-12T02:43:19;42.85;;;18.00;;
28009;SDS011;15334;49.494;8.410;2023-02-12T02:45:55;38.55;;;16.23;;
28009;SDS011;15334;49.494;8.410;2023-02-12T02:48:31;39.45;;;17.27;;
28009;SDS011;15334;49.494;8.410;2023-02-12T02:51:03;40.90;;;17.10;;
28009;SDS011;15334;49.494;8.410;2023-02-12T02:53:35;36.55;;;17.23;;
28009;SDS011;15334;49.494;8.410;2023-02-12T02:56:06;34.63;;;15.43;;
28009;SDS011;15334;49.494;8.410;2023-02-12T02:58:40;33.97;;;15.70;;
28009;SDS011;15334;49.494;8.410;2023-02-12T03:01:12;33.10;;;15.10;;
28009;SDS011;15334;49.494;8.410;2023-02-12T03:03:45;32.13;;;15.45;;
28009;SDS011;15334;49.494;8.410;2023-02-12T03:06:19;36.53;;;14.90;;
28009;SDS011;15334;49.494;8.410;2023-02-12T03:08:53;35.63;;;16.67;;
28009;SDS011;15334;49.494;8.410;2023-02-12T03:11:26;35.35;;;15.98;;
28009;SDS011;15334;49.494;8.410;2023-02-12T03:13:56;36.85;;;14.98;;
28009;SDS011;15334;49.494;8.410;2023-02-12T03:16:31;36.58;;;15.88;;
28009;SDS011;15334;49.494;8.410;2023-02-12T03:19:06;32.30;;;15.75;;
28009;SDS011;15334;49.494;8.410;2023-02-12T03:21:38;37.13;;;17.20;;
28009;SDS011;15334;49.494;8.410;2023-02-12T03:24:10;40.22;;;17.90;;
28009;SDS011;15334;49.494;8.410;2023-02-12T03:26:44;36.70;;;17.35;;
28009;SDS011;15334;49.494;8.410;2023-02-12T03:29:14;26.65;;;12.05;;
28009;SDS011;15334;49.494;8.410;2023-02-12T03:31:48;39.55;;;18.15;;
28009;SDS011;15334;49.494;8.410;2023-02-12T03:34:29;38.15;;;18.40;;
28009;SDS011;15334;49.494;8.410;2023-02-12T03:37:07;42.35;;;20.42;;
28009;SDS011;15334;49.494;8.410;2023-02-12T03:39:41;43.55;;;20.05;;
28009;SDS011;15334;49.494;8.410;2023-02-12T03:42:19;43.08;;;19.65;;
28009;SDS011;15334;49.494;8.410;2023-02-12T03:44:55;47.72;;;21.52;;
28009;SDS011;15334;49.494;8.410;2023-02-12T03:47:32;45.08;;;20.45;;
28009;SDS011;15334;49.494;8.410;2023-02-12T03:50:07;49.97;;;21.85;;
28009;SDS011;15334;49.494;8.410;2023-02-12T03:52:40;48.13;;;21.15;;
28009;SDS011;15334;49.494;8.410;2023-02-12T03:55:09;46.10;;;21.23;;
28009;SDS011;15334;49.494;8.410;2023-02-12T03:57:39;41.95;;;20.25;;
28009;SDS011;15334;49.494;8.410;2023-02-12T04:00:10;43.97;;;19.45;;
28009;SDS011;15334;49.494;8.410;2023-02-12T04:02:41;42.15;;;20.25;;
28009;SDS011;15334;49.494;8.410;2023-02-12T04:05:15;36.03;;;17.33;;
28009;SDS011;15334;49.494;8.410;2023-02-12T04:07:44;45.15;;;20.60;;
28009;SDS011;15334;49.494;8.410;2023-02-12T04:10:12;49.50;;;22.30;;
28009;SDS011;15334;49.494;8.410;2023-02-12T04:12:42;42.47;;;19.98;;
28009;SDS011;15334;49.494;8.410;2023-02-12T04:15:24;52.45;;;22.90;;
28009;SDS011;15334;49.494;8.410;2023-02-12T04:18:05;44.97;;;20.73;;
28009;SDS011;15334;49.494;8.410;2023-02-12T04:20:41;44.80;;;21.55;;
28009;SDS011;15334;49.494;8.410;2023-02-12T04:23:21;46.90;;;20.35;;
28009;SDS011;15334;49.494;8.410;2023-02-12T04:26:07;44.33;;;20.70;;
28009;SDS011;15334;49.494;8.410;2023-02-12T04:28:46;45.50;;;21.23;;
28009;SDS011;15334;49.494;8.410;2023-02-12T04:31:28;42.85;;;20.48;;
28009;SDS011;15334;49.494;8.410;2023-02-12T04:34:04;41.03;;;19.15;;
28009;SDS011;15334;49.494;8.410;2023-02-12T04:36:38;44.28;;;20.83;;
28009;SDS011;15334;49.494;8.410;2023-02-12T04:39:15;44.65;;;21.10;;
28009;SDS011;15334;49.494;8.410;2023-02-12T04:41:50;45.28;;;21.33;;
28009;SDS011;15334;49.494;8.410;2023-02-12T04:44:21;46.88;;;19.30;;
28009;SDS011;15334;49.494;8.410;2023-02-12T04:46:53;48.63;;;19.58;;
28009;SDS011;15334;49.494;8.410;2023-02-12T04:49:26;53.10;;;22.55;;
28009;SDS011;15334;49.494;8.410;2023-02-12T04:51:55;44.22;;;20.40;;
28009;SDS011;15334;49.494;8.410;2023-02-12T04:54:26;31.40;;;15.50;;
28009;SDS011;15334;49.494;8.410;2023-02-12T04:56:56;53.45;;;21.90;;
28009;SDS011;15334;49.494;8.410;2023-02-12T04:59:26;48.28;;;22.13;;
28009;SDS011;15334;49.494;8.410;2023-02-12T05:01:56;50.92;;;21.13;;
28009;SDS011;15334;49.494;8.410;2023-02-12T05:04:26;48.30;;;21.15;;
28009;SDS011;15334;49.494;8.410;2023-02-12T05:06:55;44.30;;;21.08;;
28009;SDS011;15334;49.494;8.410;2023-02-12T05:09:28;41.20;;;21.25;;
28009;SDS011;15334;49.494;8.410;2023-02-12T05:12:01;52.88;;;23.00;;
28009;SDS011;15334;49.494;8.410;2023-02-12T05:14:30;46.03;;;22.20;;
28009;SDS011;15334;49.494;8.410;2023-02-12T05:16:59;46.50;;;21.58;;
28009;SDS011;15334;49.494;8.410;2023-02-12T05:19:29;47.05;;;20.45;;
28009;SDS011;15334;49.494;8.410;2023-02-12T05:22:08;54.65;;;23.17;;
28009;SDS011;15334;49.494;8.410;2023-02-12T05:24:37;52.15;;;22.83;;
28009;SDS011;15334;49.494;8.410;2023-02-12T05:27:06;47.47;;;21.52;;
28009;SDS011;15334;49.494;8.410;2023-02-12T05:29:38;49.83;;;20.98;;
28009;SDS011;15334;49.494;8.410;2023-02-12T05:32:08;52.95;;;22.17;;
28009;SDS011;15334;49.494;8.410;2023-02-12T05:34:38;47.22;;;22.25;;
28009;SDS011;15334;49.494;8.410;2023-02-12T05:37:06;47.05;;;22.60;;
28009;SDS011;15334;49.494;8.410;2023-02-12T05:39:35;47.13;;;22.02;;
28009;SDS011;15334;49.494;8.410;2023-02-12T05:42:03;51.17;;;22.38;;
28009;SDS011;15334;49.494;8.410;2023-02-12T05:44:34;42.83;;;19.58;;
28009;SDS011;15334;49.494;8.410;2023-02-12T05:47:05;41.38;;;19.42;;
28009;SDS011;15334;49.494;8.410;2023-02-12T05:49:33;45.72;;;19.73;;
28009;SDS011;15334;49.494;8.410;2023-02-12T05:52:03;44.85;;;20.92;;
28009;SDS011;15334;49.494;8.410;2023-02-12T05:54:32;42.30;;;19.65;;
28009;SDS011;15334;49.494;8.410;2023-02-12T05:57:03;42.97;;;20.30;;
28009;SDS011;15334;49.494;8.410;2023-02-12T05:59:33;46.50;;;20.23;;
28009;SDS011;15334;49.494;8.410;2023-02-12T06:02:01;47.90;;;20.75;;
28009;SDS011;15334;49.494;8.410;2023-02-12T06:04:30;50.03;;;21.83;;
28009;SDS011;15334;49.494;8.410;2023-02-12T06:07:01;56.92;;;22.73;;
28009;SDS011;15334;49.494;8.410;2023-02-12T06:09:31;53.88;;;22.30;;
28009;SDS011;15334;49.494;8.410;2023-02-12T06:11:59;51.67;;;21.90;;
28009;SDS011;15334;49.494;8.410;2023-02-12T06:14:28;52.40;;;21.33;;
28009;SDS011;15334;49.494;8.410;2023-02-12T06:16:57;40.42;;;18.98;;
28009;SDS011;15334;49.494;8.410;2023-02-12T06:19:26;48.92;;;21.75;;
28009;SDS011;15334;49.494;8.410;2023-02-12T06:21:54;43.33;;;19.42;;
28009;SDS011;15334;49.494;8.410;2023-02-12T06:24:24;52.80;;;22.52;;
28009;SDS011;15334;49.494;8.410;2023-02-12T06:26:54;53.78;;;22.13;;
28009;SDS011;15334;49.494;8.410;2023-02-12T06:31:54;47.05;;;20.00;;
28009;SDS011;15334;49.494;8.410;2023-02-12T06:34:26;46.47;;;19.17;;
28009;SDS011;15334;49.494;8.410;2023-02-12T06:36:56;41.20;;;18.52;;
28009;SDS011;15334;49.494;8.410;2023-02-12T06:39:25;48.40;;;21.17;;
28009;SDS011;15334;49.494;8.410;2023-02-12T06:41:54;51.33;;;22.52;;
28009;SDS011;15334;49.494;8.410;2023-02-12T06:44:23;52.05;;;21.00;;
28009;SDS011;15334;49.494;8.410;2023-02-12T06:46:51;52.08;;;21.63;;
28009;SDS011;15334;49.494;8.410;2023-02-12T06:49:19;54.38;;;21.80;;
28009;SDS011;15334;49.494;8.410;2023-02-12T06:51:48;48.75;;;21.13;;
28009;SDS011;15334;49.494;8.410;2023-02-12T06:54:19;44.30;;;20.98;;
28009;SDS011;15334;49.494;8.410;2023-02-12T06:56:56;53.90;;;22.10;;
28009;SDS011;15334;49.494;8.410;2023-02-12T06:59:27;50.72;;;22.08;;
28009;SDS011;15334;49.494;8.410;2023-02-12T07:01:55;50.30;;;22.70;;
28009;SDS011;15334;49.494;8.410;2023-02-12T07:04:26;51.03;;;21.98;;
28009;SDS011;15334;49.494;8.410;2023-02-12T07:06:58;55.25;;;23.52;;
28009;SDS011;15334;49.494;8.410;2023-02-12T07:09:36;49.97;;;21.60;;
28009;SDS011;15334;49.494;8.410;2023-02-12T07:12:07;51.20;;;21.48;;
28009;SDS011;15334;49.494;8.410;2023-02-12T07:14:36;46.67;;;20.10;;
28009;SDS011;15334;49.494;8.410;2023-02-12T07:17:07;49.25;;;21.83;;
28009;SDS011;15334;49.494;8.410;2023-02-12T07:19:40;47.72;;;21.90;;
28009;SDS011;15334;49.494;8.410;2023-02-12T07:22:08;52.95;;;21.60;;
28009;SDS011;15334;49.494;8.410;2023-02-12T07:24:36;46.78;;;20.40;;
28009;SDS011;15334;49.494;8.410;2023-02-12T07:27:06;54.10;;;21.75;;
28009;SDS011;15334;49.494;8.410;2023-02-12T07:29:34;50.40;;;20.13;;
28009;SDS011;15334;49.494;8.410;2023-02-12T07:32:03;47.72;;;20.85;;
28009;SDS011;15334;49.494;8.410;2023-02-12T07:34:31;50.60;;;21.73;;
28009;SDS011;15334;49.494;8.410;2023-02-12T07:36:59;47.20;;;20.70;;
28009;SDS011;15334;49.494;8.410;2023-02-12T07:39:27;48.70;;;20.60;;
28009;SDS011;15334;49.494;8.410;2023-02-12T07:41:55;47.42;;;20.30;;
28009;SDS011;15334;49.494;8.410;2023-02-12T07:44:25;46.03;;;20.17;;
28009;SDS011;15334;49.494;8.410;2023-02-12T07:46:53;43.22;;;19.83;;
28009;SDS011;15334;49.494;8.410;2023-02-12T07:49:21;43.78;;;21.60;;
28009;SDS011;15334;49.494;8.410;2023-02-12T07:51:49;46.67;;;21.10;;
28009;SDS011;15334;49.494;8.410;2023-02-12T07:54:17;47.22;;;19.70;;
28009;SDS011;15334;49.494;8.410;2023-02-12T07:56:45;47.13;;;20.52;;
28009;SDS011;15334;49.494;8.410;2023-02-12T07:59:15;56.47;;;22.50;;
28009;SDS011;15334;49.494;8.410;2023-02-12T08:01:48;55.30;;;22.50;;
28009;SDS011;15334;49.494;8.410;2023-02-12T08:04:18;46.05;;;21.40;;
28009;SDS011;15334;49.494;8.410;2023-02-12T08:06:48;39.20;;;20.20;;
28009;SDS011;15334;49.494;8.410;2023-02-12T08:09:20;50.00;;;22.17;;
28009;SDS011;15334;49.494;8.410;2023-02-12T08:11:49;46.85;;;20.95;;
28009;SDS011;15334;49.494;8.410;2023-02-12T08:14:18;47.05;;;21.30;;
28009;SDS011;15334;49.494;8.410;2023-02-12T08:16:48;53.15;;;21.63;;
28009;SDS011;15334;49.494;8.410;2023-02-12T08:19:17;50.47;;;23.63;;
28009;SDS011;15334;49.494;8.410;2023-02-12T08:21:52;49.45;;;22.42;;
28009;SDS011;15334;49.494;8.410;2023-02-12T08:24:21;55.28;;;21.75;;
28009;SDS011;15334;49.494;8.410;2023-02-12T08:26:49;47.28;;;21.60;;
28009;SDS011;15334;49.494;8.410;2023-02-12T08:29:19;47.20;;;21.42;;
28009;SDS011;15334;49.494;8.410;2023-02-12T08:31:54;44.58;;;22.17;;
28009;SDS011;15334;49.494;8.410;2023-02-12T08:34:23;46.65;;;21.90;;
28009;SDS011;15334;49.494;8.410;2023-02-12T08:36:52;49.97;;;23.80;;
28009;SDS011;15334;49.494;8.410;2023-02-12T08:39:22;46.13;;;23.65;;
28009;SDS011;15334;49.494;8.410;2023-02-12T08:41:52;53.50;;;24.02;;
28009;SDS011;15334;49.494;8.410;2023-02-12T08:44:20;51.13;;;22.85;;
28009;SDS011;15334;49.494;8.410;2023-02-12T08:46:49;46.33;;;23.13;;
28009;SDS011;15334;49.494;8.410;2023-02-12T08:49:21;50.00;;;24.08;;
28009;SDS011;15334;49.494;8.410;2023-02-12T08:51:50;48.03;;;22.50;;
28009;SDS011;15334;49.494;8.410;2023-02-12T08:54:21;44.03;;;21.27;;
28009;SDS011;15334;49.494;8.410;2023-02-12T08:56:50;51.03;;;23.70;;
28009;SDS011;15334;49.494;8.410;2023-02-12T08:59:21;51.17;;;22.40;;
28009;SDS011;15334;49.494;8.410;2023-02-12T09:01:59;52.22;;;23.23;;
28009;SDS011;15334;49.494;8.410;2023-02-12T09:04:29;49.25;;;24.35;;
28009;SDS011;15334;49.494;8.410;2023-02-12T09:06:57;50.53;;;22.40;;
28009;SDS011;15334;49.494;8.410;2023-02-12T09:09:25;43.30;;;21.77;;
28009;SDS011;15334;49.494;8.410;2023-02-12T09:11:53;46.08;;;21.40;;
28009;SDS011;15334;49.494;8.410;2023-02-12T09:14:21;46.58;;;24.13;;
28009;SDS011;15334;49.494;8.410;2023-02-12T09:16:50;52.80;;;22.90;;
28009;SDS011;15334;49.494;8.410;2023-02-12T09:19:20;53.97;;;21.65;;
28009;SDS011;15334;49.494;8.410;2023-02-12T09:21:51;45.90;;;22.17;;
28009;SDS011;15334;49.494;8.410;2023-02-12T09:24:22;46.90;;;21.65;;
28009;SDS011;15334;49.494;8.410;2023-02-12T09:26:52;51.53;;;22.65;;
28009;SDS011;15334;49.494;8.410;2023-02-12T09:29:20;49.75;;;23.58;;
28009;SDS011;15334;49.494;8.410;2023-02-12T09:31:49;46.58;;;22.67;;
28009;SDS011;15334;49.494;8.410;2023-02-12T09:34:17;44.72;;;22.77;;
28009;SDS011;15334;49.494;8.410;2023-02-12T09:36:47;50.22;;;20.95;;
28009;SDS011;15334;49.494;8.410;2023-02-12T09:39:15;45.80;;;22.10;;
28009;SDS011;15334;49.494;8.410;2023-02-12T09:41:49;42.42;;;21.60;;
28009;SDS011;15334;49.494;8.410;2023-02-12T09:44:38;44.70;;;21.48;;
28009;SDS011;15334;49.494;8.410;2023-02-12T09:47:16;44.55;;;22.45;;
28009;SDS011;15334;49.494;8.410;2023-02-12T09:49:55;49.58;;;22.40;;
28009;SDS011;15334;49.494;8.410;2023-02-12T09:52:55;49.67;;;21.63;;
28009;SDS011;15334;49.494;8.410;2023-02-12T09:55:25;44.05;;;21.83;;
28009;SDS011;15334;49.494;8.410;2023-02-12T09:57:56;51.40;;;23.10;;
28009;SDS011;15334;49.494;8.410;2023-02-12T10:00:28;53.50;;;25.23;;
28009;SDS011;15334;49.494;8.410;2023-02-12T10:02:59;50.08;;;21.90;;
28009;SDS011;15334;49.494;8.410;2023-02-12T10:05:31;46.80;;;22.55;;
28009;SDS011;15334;49.494;8.410;2023-02-12T10:08:18;46.85;;;22.10;;
28009;SDS011;15334;49.494;8.410;2023-02-12T10:11:07;46.38;;;21.15;;
28009;SDS011;15334;49.494;8.410;2023-02-12T10:13:49;46.15;;;21.70;;
28009;SDS011;15334;49.494;8.410;2023-02-12T10:16:31;44.28;;;21.00;;
28009;SDS011;15334;49.494;8.410;2023-02-12T10:19:10;47.20;;;22.02;;
28009;SDS011;15334;49.494;8.410;2023-02-12T10:21:53;43.83;;;21.17;;
28009;SDS011;15334;49.494;8.410;2023-02-12T10:24:39;47.60;;;22.38;;
28009;SDS011;15334;49.494;8.410;2023-02-12T10:27:16;50.60;;;21.80;;
28009;SDS011;15334;49.494;8.410;2023-02-12T10:29:49;46.75;;;22.00;;
28009;SDS011;15334;49.494;8.410;2023-02-12T10:32:22;44.17;;;22.25;;
28009;SDS011;15334;49.494;8.410;2023-02-12T10:34:52;48.47;;;21.60;;
28009;SDS011;15334;49.494;8.410;2023-02-12T10:37:25;46.70;;;23.42;;
28009;SDS011;15334;49.494;8.410;2023-02-12T10:40:00;46.25;;;19.88;;
28009;SDS011;15334;49.494;8.410;2023-02-12T10:42:35;43.95;;;20.65;;
28009;SDS011;15334;49.494;8.410;2023-02-12T10:45:11;47.80;;;22.17;;
28009;SDS011;15334;49.494;8.410;2023-02-12T10:47:52;49.08;;;21.05;;
28009;SDS011;15334;49.494;8.410;2023-02-12T10:50:32;43.92;;;20.42;;
28009;SDS011;15334;49.494;8.410;2023-02-12T10:53:16;43.67;;;21.38;;
28009;SDS011;15334;49.494;8.410;2023-02-12T10:55:49;50.60;;;21.92;;
28009;SDS011;15334;49.494;8.410;2023-02-12T10:58:30;47.75;;;21.55;;
28009;SDS011;15334;49.494;8.410;2023-02-12T11:00:59;45.17;;;20.20;;
28009;SDS011;15334;49.494;8.410;2023-02-12T11:03:29;44.13;;;22.48;;
28009;SDS011;15334;49.494;8.410;2023-02-12T11:06:10;44.50;;;21.30;;
28009;SDS011;15334;49.494;8.410;2023-02-12T11:08:39;47.42;;;21.08;;
28009;SDS011;15334;49.494;8.410;2023-02-12T11:11:10;42.47;;;21.67;;
28009;SDS011;15334;49.494;8.410;2023-02-12T11:13:43;42.17;;;19.52;;
28009;SDS011;15334;49.494;8.410;2023-02-12T11:16:14;32.33;;;14.57;;
28009;SDS011;15334;49.494;8.410;2023-02-12T11:18:56;39.38;;;20.95;;
28009;SDS011;15334;49.494;8.410;2023-02-12T11:21:26;38.20;;;19.45;;
28009;SDS011;15334;49.494;8.410;2023-02-12T11:23:54;40.05;;;20.08;;
28009;SDS011;15334;49.494;8.410;2023-02-12T11:26:25;49.65;;;20.52;;
28009;SDS011;15334;49.494;8.410;2023-02-12T11:28:55;43.33;;;18.55;;
28009;SDS011;15334;49.494;8.410;2023-02-12T11:31:25;36.30;;;16.90;;
28009;SDS011;15334;49.494;8.410;2023-02-12T11:34:08;38.78;;;17.63;;
28009;SDS011;15334;49.494;8.410;2023-02-12T11:36:43;31.23;;;13.80;;
28009;SDS011;15334;49.494;8.410;2023-02-12T11:39:16;21.40;;;10.05;;
28009;SDS011;15334;49.494;8.410;2023-02-12T11:41:50;21.17;;;10.23;;
28009;SDS011;15334;49.494;8.410;2023-02-12T11:44:21;26.27;;;11.00;;
28009;SDS011;15334;49.494;8.410;2023-02-12T11:46:52;20.38;;;9.57;;
28009;SDS011;15334;49.494;8.410;2023-02-12T11:49:26;19.73;;;9.07;;
28009;SDS011;15334;49.494;8.410;2023-02-12T11:51:59;21.45;;;8.45;;
28009;SDS011;15334;49.494;8.410;2023-02-12T11:54:29;21.95;;;9.80;;
28009;SDS011;15334;49.494;8.410;2023-02-12T11:59:32;17.80;;;8.35;;
28009;SDS011;15334;49.494;8.410;2023-02-12T12:02:04;17.38;;;8.40;;
28009;SDS011;15334;49.494;8.410;2023-02-12T12:04:43;20.77;;;9.73;;
28009;SDS011;15334;49.494;8.410;2023-02-12T12:07:16;21.65;;;8.40;;
28009;SDS011;15334;49.494;8.410;2023-02-12T12:09:49;17.13;;;8.05;;
28009;SDS011;15334;49.494;8.410;2023-02-12T12:12:30;17.65;;;8.35;;
28009;SDS011;15334;49.494;8.410;2023-02-12T12:15:04;16.45;;;7.53;;
28009;SDS011;15334;49.494;8.410;2023-02-12T12:17:57;16.60;;;8.45;;
28009;SDS011;15334;49.494;8.410;2023-02-12T12:20:47;22.83;;;9.93;;
28009;SDS011;15334;49.494;8.410;2023-02-12T12:23:20;22.35;;;9.40;;
28009;SDS011;15334;49.494;8.410;2023-02-12T12:25:55;19.95;;;9.75;;
28009;SDS011;15334;49.494;8.410;2023-02-12T12:28:31;22.88;;;9.60;;
28009;SDS011;15334;49.494;8.410;2023-02-12T12:31:05;15.27;;;6.85;;
28009;SDS011;15334;49.494;8.410;2023-02-12T12:33:39;14.65;;;7.57;;
28009;SDS011;15334;49.494;8.410;2023-02-12T12:36:21;12.88;;;6.75;;
28009;SDS011;15334;49.494;8.410;2023-02-12T12:39:05;15.73;;;7.15;;
28009;SDS011;15334;49.494;8.410;2023-02-12T12:41:49;16.60;;;6.40;;
28009;SDS011;15334;49.494;8.410;2023-02-12T12:44:34;13.82;;;6.55;;
28009;SDS011;15334;49.494;8.410;2023-02-12T12:47:17;20.92;;;8.00;;
28009;SDS011;15334;49.494;8.410;2023-02-12T12:49:58;14.13;;;7.35;;
28009;SDS011;15334;49.494;8.410;2023-02-12T12:52:40;17.45;;;6.65;;
28009;SDS011;15334;49.494;8.410;2023-02-12T12:58:29;15.75;;;7.28;;
28009;SDS011;15334;49.494;8.410;2023-02-12T13:01:18;14.05;;;6.68;;
28009;SDS011;15334;49.494;8.410;2023-02-12T13:04:17;15.93;;;7.95;;
28009;SDS011;15334;49.494;8.410;2023-02-12T13:07:11;18.40;;;7.35;;
28009;SDS011;15334;49.494;8.410;2023-02-12T13:09:47;17.63;;;7.43;;
28009;SDS011;15334;49.494;8.410;2023-02-12T13:12:44;16.58;;;7.45;;
28009;SDS011;15334;49.494;8.410;2023-02-12T13:15:25;16.27;;;7.57;;
28009;SDS011;15334;49.494;8.410;2023-02-12T13:18:03;17.30;;;7.15;;
28009;SDS011;15334;49.494;8.410;2023-02-12T13:20:41;16.05;;;7.13;;
28009;SDS011;15334;49.494;8.410;2023-02-12T13:23:20;15.50;;;7.18;;
28009;SDS011;15334;49.494;8.410;2023-02-12T13:25:55;15.60;;;8.35;;
28009;SDS011;15334;49.494;8.410;2023-02-12T13:28:30;16.60;;;7.20;;
28009;SDS011;15334;49.494;8.410;2023-02-12T13:33:54;14.52;;;6.35;;
28009;SDS011;15334;49.494;8.410;2023-02-12T13:36:25;13.80;;;6.72;;
28009;SDS011;15334;49.494;8.410;2023-02-12T13:38:54;14.98;;;5.88;;
28009;SDS011;15334;49.494;8.410;2023-02-12T13:41:27;14.80;;;6.38;;
28009;SDS011;15334;49.494;8.410;2023-02-12T13:43:59;13.73;;;5.55;;
28009;SDS011;15334;49.494;8.410;2023-02-12T13:46:37;12.55;;;6.30;;
28009;SDS011;15334;49.494;8.410;2023-02-12T13:49:15;13.57;;;6.65;;
28009;SDS011;15334;49.494;8.410;2023-02-12T13:51:50;13.27;;;6.25;;
28009;SDS011;15334;49.494;8.410;2023-02-12T13:57:16;13.07;;;5.88;;
28009;SDS011;15334;49.494;8.410;2023-02-12T13:59:47;10.50;;;5.80;;
28009;SDS011;15334;49.494;8.410;2023-02-12T14:05:12;13.63;;;5.68;;
28009;SDS011;15334;49.494;8.410;2023-02-12T14:07:44;9.63;;;5.15;;
28009;SDS011;15334;49.494;8.410;2023-02-12T14:10:18;14.57;;;5.45;;
28009;SDS011;15334;49.494;8.410;2023-02-12T14:12:49;14.02;;;5.03;;
28009;SDS011;15334;49.494;8.410;2023-02-12T14:15:29;13.43;;;5.82;;
28009;SDS011;15334;49.494;8.410;2023-02-12T14:18:04;16.17;;;6.28;;
28009;SDS011;15334;49.494;8.410;2023-02-12T14:20:36;11.65;;;5.43;;
28009;SDS011;15334;49.494;8.410;2023-02-12T14:23:21;16.70;;;6.40;;
28009;SDS011;15334;49.494;8.410;2023-02-12T14:26:08;14.68;;;6.57;;
28009;SDS011;15334;49.494;8.410;2023-02-12T14:28:46;14.75;;;7.03;;
28009;SDS011;15334;49.494;8.410;2023-02-12T14:31:32;13.20;;;6.32;;
28009;SDS011;15334;49.494;8.410;2023-02-12T14:37:15;12.60;;;5.40;;
28009;SDS011;15334;49.494;8.410;2023-02-12T14:42:57;11.85;;;5.93;;
28009;SDS011;15334;49.494;8.410;2023-02-12T14:45:31;14.73;;;6.20;;
28009;SDS011;15334;49.494;8.410;2023-02-12T14:48:07;14.63;;;6.35;;
28009;SDS011;15334;49.494;8.410;2023-02-12T14:51:22;14.57;;;7.03;;
28009;SDS011;15334;49.494;8.410;2023-02-12T14:54:12;16.88;;;8.02;;
28009;SDS011;15334;49.494;8.410;2023-02-12T14:56:46;20.02;;;9.98;;
28009;SDS011;15334;49.494;8.410;2023-02-12T14:59:17;21.65;;;9.93;;
28009;SDS011;15334;49.494;8.410;2023-02-12T15:01:49;19.15;;;8.35;;
28009;SDS011;15334;49.494;8.410;2023-02-12T15:04:23;20.50;;;8.77;;
28009;SDS011;15334;49.494;8.410;2023-02-12T15:06:58;21.95;;;9.90;;
28009;SDS011;15334;49.494;8.410;2023-02-12T15:09:38;22.63;;;9.90;;
28009;SDS011;15334;49.494;8.410;2023-02-12T15:12:16;24.83;;;11.20;;
28009;SDS011;15334;49.494;8.410;2023-02-12T15:14:55;27.52;;;10.45;;
28009;SDS011;15334;49.494;8.410;2023-02-12T15:17:46;21.15;;;8.90;;
28009;SDS011;15334;49.494;8.410;2023-02-12T15:20:26;24.88;;;10.80;;
28009;SDS011;15334;49.494;8.410;2023-02-12T15:23:29;25.67;;;10.45;;
28009;SDS011;15334;49.494;8.410;2023-02-12T15:26:10;22.30;;;9.85;;
28009;SDS011;15334;49.494;8.410;2023-02-12T15:28:52;22.00;;;11.75;;
28009;SDS011;15334;49.494;8.410;2023-02-12T15:31:26;28.15;;;10.30;;
28009;SDS011;15334;49.494;8.410;2023-02-12T15:34:12;24.15;;;11.13;;